sensor_id;sensor_type;location;lat;lon;timestamp;P1;durP1;ratioP1;P2;durP2;ratioP2
73766;SDS011;62074;43.530;-5.646;2022-09-09T00:00:49;12.18;;;1.67;;
73766;SDS011;62074;43.530;-5.646;2022-09-09T00:03:26;11.98;;;1.75;;
73766;SDS011;62074;43.530;-5.646;2022-09-09T00:06:09;10.70;;;1.80;;
73766;SDS011;62074;43.530;-5.646;2022-09-09T00:08:53;8.60;;;1.58;;
73766;SDS011;62074;43.530;-5.646;2022-09-09T00:11:40;10.95;;;1.30;;
73766;SDS011;62074;43.530;-5.646;2022-09-09T00:17:08;10.43;;;1.70;;
73766;SDS011;62074;43.530;-5.646;2022-09-09T00:19:46;10.90;;;1.63;;
73766;SDS011;62074;43.530;-5.646;2022-09-09T00:22:20;8.38;;;1.58;;
73766;SDS011;62074;43.530;-5.646;2022-09-09T00:24:51;9.48;;;1.35;;
73766;SDS011;62074;43.530;-5.646;2022-09-09T00:27:29;8.77;;;1.40;;
73766;SDS011;62074;43.530;-5.646;2022-09-09T00:32:44;8.93;;;1.60;;
73766;SDS011;62074;43.530;-5.646;2022-09-09T00:37:35;9.63;;;1.00;;
73766;SDS011;62074;43.530;-5.646;2022-09-09T00:40:01;6.78;;;1.23;;
73766;SDS011;62074;43.530;-5.646;2022-09-09T00:42:41;8.63;;;1.20;;
73766;SDS011;62074;43.530;-5.646;2022-09-09T00:47:52;9.13;;;1.52;;
73766;SDS011;62074;43.530;-5.646;2022-09-09T00:53:18;8.27;;;1.23;;
73766;SDS011;62074;43.530;-5.646;2022-09-09T00:56:22;9.13;;;1.20;;
73766;SDS011;62074;43.530;-5.646;2022-09-09T01:01:44;8.50;;;1.00;;
73766;SDS011;62074;43.530;-5.646;2022-09-09T01:04:11;8.70;;;0.97;;
73766;SDS011;62074;43.530;-5.646;2022-09-09T01:06:41;8.48;;;1.27;;
73766;SDS011;62074;43.530;-5.646;2022-09-09T01:09:22;8.35;;;1.33;;
73766;SDS011;62074;43.530;-5.646;2022-09-09T01:11:57;9.68;;;1.23;;
73766;SDS011;62074;43.530;-5.646;2022-09-09T01:25:21;9.93;;;1.65;;
73766;SDS011;62074;43.530;-5.646;2022-09-09T01:27:57;11.13;;;1.90;;
73766;SDS011;62074;43.530;-5.646;2022-09-09T01:30:25;11.07;;;1.70;;
73766;SDS011;62074;43.530;-5.646;2022-09-09T01:32:56;9.30;;;1.75;;
73766;SDS011;62074;43.530;-5.646;2022-09-09T01:37:55;7.03;;;1.42;;
73766;SDS011;62074;43.530;-5.646;2022-09-09T01:40:21;7.57;;;1.30;;
73766;SDS011;62074;43.530;-5.646;2022-09-09T01:42:47;11.70;;;1.87;;
73766;SDS011;62074;43.530;-5.646;2022-09-09T01:45:13;8.57;;;1.20;;
73766;SDS011;62074;43.530;-5.646;2022-09-09T01:47:39;14.73;;;1.70;;
73766;SDS011;62074;43.530;-5.646;2022-09-09T01:50:05;8.33;;;1.20;;
73766;SDS011;62074;43.530;-5.646;2022-09-09T01:52:36;12.15;;;2.13;;
73766;SDS011;62074;43.530;-5.646;2022-09-09T01:55:03;13.63;;;1.95;;
73766;SDS011;62074;43.530;-5.646;2022-09-09T01:57:41;9.68;;;1.55;;
73766;SDS011;62074;43.530;-5.646;2022-09-09T02:00:26;8.60;;;1.50;;
73766;SDS011;62074;43.530;-5.646;2022-09-09T02:02:55;13.57;;;1.40;;
73766;SDS011;62074;43.530;-5.646;2022-09-09T02:05:39;12.40;;;1.30;;
73766;SDS011;62074;43.530;-5.646;2022-09-09T02:08:07;11.32;;;1.60;;
73766;SDS011;62074;43.530;-5.646;2022-09-09T02:13:35;7.53;;;1.23;;
73766;SDS011;62074;43.530;-5.646;2022-09-09T02:19:11;8.82;;;1.20;;
73766;SDS011;62074;43.530;-5.646;2022-09-09T02:21:50;12.32;;;1.70;;
73766;SDS011;62074;43.530;-5.646;2022-09-09T02:24:19;7.03;;;1.45;;
73766;SDS011;62074;43.530;-5.646;2022-09-09T02:26:47;9.87;;;1.43;;
73766;SDS011;62074;43.530;-5.646;2022-09-09T02:29:25;13.02;;;1.73;;
73766;SDS011;62074;43.530;-5.646;2022-09-09T02:31:54;9.07;;;1.60;;
73766;SDS011;62074;43.530;-5.646;2022-09-09T02:34:23;10.90;;;1.55;;
73766;SDS011;62074;43.530;-5.646;2022-09-09T02:36:52;11.55;;;1.52;;
73766;SDS011;62074;43.530;-5.646;2022-09-09T02:39:19;9.13;;;1.23;;
73766;SDS011;62074;43.530;-5.646;2022-09-09T02:41:45;10.15;;;1.58;;
73766;SDS011;62074;43.530;-5.646;2022-09-09T02:44:22;8.63;;;1.65;;
73766;SDS011;62074;43.530;-5.646;2022-09-09T02:49:51;7.22;;;1.23;;
73766;SDS011;62074;43.530;-5.646;2022-09-09T02:52:45;10.77;;;1.98;;
73766;SDS011;62074;43.530;-5.646;2022-09-09T02:58:08;11.40;;;1.33;;
73766;SDS011;62074;43.530;-5.646;2022-09-09T03:00:37;11.23;;;1.33;;
73766;SDS011;62074;43.530;-5.646;2022-09-09T03:03:05;9.27;;;0.80;;
73766;SDS011;62074;43.530;-5.646;2022-09-09T03:05:32;8.80;;;1.25;;
73766;SDS011;62074;43.530;-5.646;2022-09-09T03:07:57;10.40;;;1.10;;
73766;SDS011;62074;43.530;-5.646;2022-09-09T03:10:23;8.05;;;1.10;;
73766;SDS011;62074;43.530;-5.646;2022-09-09T03:12:49;8.60;;;1.00;;
73766;SDS011;62074;43.530;-5.646;2022-09-09T03:15:15;8.20;;;0.90;;
73766;SDS011;62074;43.530;-5.646;2022-09-09T03:17:41;7.65;;;0.90;;
73766;SDS011;62074;43.530;-5.646;2022-09-09T03:20:07;6.63;;;1.00;;
73766;SDS011;62074;43.530;-5.646;2022-09-09T03:22:33;8.30;;;0.90;;
73766;SDS011;62074;43.530;-5.646;2022-09-09T03:25:00;9.20;;;1.20;;
73766;SDS011;62074;43.530;-5.646;2022-09-09T03:27:25;8.13;;;1.20;;
73766;SDS011;62074;43.530;-5.646;2022-09-09T03:29:51;6.83;;;0.83;;
73766;SDS011;62074;43.530;-5.646;2022-09-09T03:32:17;8.93;;;0.90;;
73766;SDS011;62074;43.530;-5.646;2022-09-09T03:34:43;7.53;;;1.00;;
73766;SDS011;62074;43.530;-5.646;2022-09-09T03:37:09;7.60;;;1.00;;
73766;SDS011;62074;43.530;-5.646;2022-09-09T03:39:34;8.13;;;1.90;;
73766;SDS011;62074;43.530;-5.646;2022-09-09T03:42:00;9.88;;;1.00;;
73766;SDS011;62074;43.530;-5.646;2022-09-09T03:44:32;7.87;;;0.90;;
73766;SDS011;62074;43.530;-5.646;2022-09-09T03:46:57;8.48;;;0.88;;
73766;SDS011;62074;43.530;-5.646;2022-09-09T03:49:25;9.98;;;1.02;;
73766;SDS011;62074;43.530;-5.646;2022-09-09T03:51:54;8.82;;;1.17;;
73766;SDS011;62074;43.530;-5.646;2022-09-09T03:54:21;8.52;;;1.00;;
73766;SDS011;62074;43.530;-5.646;2022-09-09T03:56:48;9.50;;;0.93;;
73766;SDS011;62074;43.530;-5.646;2022-09-09T03:59:13;8.73;;;1.33;;
73766;SDS011;62074;43.530;-5.646;2022-09-09T04:01:39;8.40;;;1.03;;
73766;SDS011;62074;43.530;-5.646;2022-09-09T04:04:05;8.18;;;1.02;;
73766;SDS011;62074;43.530;-5.646;2022-09-09T04:06:30;8.63;;;0.93;;
73766;SDS011;62074;43.530;-5.646;2022-09-09T04:08:56;7.90;;;0.90;;
73766;SDS011;62074;43.530;-5.646;2022-09-09T04:11:21;7.67;;;1.23;;
73766;SDS011;62074;43.530;-5.646;2022-09-09T04:13:47;8.20;;;0.87;;
73766;SDS011;62074;43.530;-5.646;2022-09-09T04:16:13;10.32;;;0.90;;
73766;SDS011;62074;43.530;-5.646;2022-09-09T04:18:39;7.82;;;1.10;;
73766;SDS011;62074;43.530;-5.646;2022-09-09T04:21:05;11.93;;;0.90;;
73766;SDS011;62074;43.530;-5.646;2022-09-09T04:23:32;8.77;;;1.45;;
73766;SDS011;62074;43.530;-5.646;2022-09-09T04:25:58;8.38;;;1.25;;
73766;SDS011;62074;43.530;-5.646;2022-09-09T04:28:26;8.18;;;0.70;;
73766;SDS011;62074;43.530;-5.646;2022-09-09T04:30:53;5.90;;;0.70;;
73766;SDS011;62074;43.530;-5.646;2022-09-09T04:33:19;10.10;;;0.90;;
73766;SDS011;62074;43.530;-5.646;2022-09-09T04:35:45;9.48;;;1.60;;
73766;SDS011;62074;43.530;-5.646;2022-09-09T04:38:13;11.03;;;1.20;;
73766;SDS011;62074;43.530;-5.646;2022-09-09T04:40:38;9.27;;;0.98;;
73766;SDS011;62074;43.530;-5.646;2022-09-09T04:43:08;9.30;;;0.98;;
73766;SDS011;62074;43.530;-5.646;2022-09-09T04:45:33;9.38;;;1.63;;
73766;SDS011;62074;43.530;-5.646;2022-09-09T04:47:59;8.50;;;1.17;;
73766;SDS011;62074;43.530;-5.646;2022-09-09T04:50:25;9.45;;;1.42;;
73766;SDS011;62074;43.530;-5.646;2022-09-09T04:52:51;9.87;;;1.50;;
73766;SDS011;62074;43.530;-5.646;2022-09-09T04:55:16;8.27;;;1.40;;
73766;SDS011;62074;43.530;-5.646;2022-09-09T04:57:42;10.30;;;1.27;;
73766;SDS011;62074;43.530;-5.646;2022-09-09T05:00:08;7.23;;;1.40;;
73766;SDS011;62074;43.530;-5.646;2022-09-09T05:02:37;10.95;;;1.55;;
73766;SDS011;62074;43.530;-5.646;2022-09-09T05:05:03;12.23;;;1.80;;
73766;SDS011;62074;43.530;-5.646;2022-09-09T05:07:30;12.55;;;1.90;;
73766;SDS011;62074;43.530;-5.646;2022-09-09T05:09:56;10.65;;;1.35;;
73766;SDS011;62074;43.530;-5.646;2022-09-09T05:12:22;12.50;;;1.60;;
73766;SDS011;62074;43.530;-5.646;2022-09-09T05:14:49;12.40;;;1.42;;
73766;SDS011;62074;43.530;-5.646;2022-09-09T05:17:15;14.80;;;1.02;;
73766;SDS011;62074;43.530;-5.646;2022-09-09T05:19:41;11.48;;;1.20;;
73766;SDS011;62074;43.530;-5.646;2022-09-09T05:22:07;10.20;;;1.25;;
73766;SDS011;62074;43.530;-5.646;2022-09-09T05:24:33;8.60;;;1.00;;
73766;SDS011;62074;43.530;-5.646;2022-09-09T05:26:58;9.77;;;1.30;;
73766;SDS011;62074;43.530;-5.646;2022-09-09T05:29:26;10.48;;;1.27;;
73766;SDS011;62074;43.530;-5.646;2022-09-09T05:31:52;12.77;;;1.17;;
73766;SDS011;62074;43.530;-5.646;2022-09-09T05:34:17;12.37;;;1.80;;
73766;SDS011;62074;43.530;-5.646;2022-09-09T05:36:43;12.67;;;1.93;;
73766;SDS011;62074;43.530;-5.646;2022-09-09T05:39:08;15.17;;;2.00;;
73766;SDS011;62074;43.530;-5.646;2022-09-09T05:41:34;11.47;;;1.50;;
73766;SDS011;62074;43.530;-5.646;2022-09-09T05:44:01;7.63;;;1.20;;
73766;SDS011;62074;43.530;-5.646;2022-09-09T05:46:26;8.10;;;1.10;;
73766;SDS011;62074;43.530;-5.646;2022-09-09T05:48:52;6.32;;;1.25;;
73766;SDS011;62074;43.530;-5.646;2022-09-09T05:51:20;9.40;;;1.10;;
73766;SDS011;62074;43.530;-5.646;2022-09-09T05:53:47;8.55;;;1.10;;
73766;SDS011;62074;43.530;-5.646;2022-09-09T05:56:14;6.28;;;1.20;;
73766;SDS011;62074;43.530;-5.646;2022-09-09T05:58:45;7.80;;;1.20;;
73766;SDS011;62074;43.530;-5.646;2022-09-09T06:01:18;8.55;;;1.42;;
73766;SDS011;62074;43.530;-5.646;2022-09-09T06:03:48;9.07;;;1.30;;
73766;SDS011;62074;43.530;-5.646;2022-09-09T06:06:19;10.65;;;1.48;;
73766;SDS011;62074;43.530;-5.646;2022-09-09T06:08:47;9.93;;;1.10;;
73766;SDS011;62074;43.530;-5.646;2022-09-09T06:11:14;9.70;;;1.27;;
73766;SDS011;62074;43.530;-5.646;2022-09-09T06:13:41;9.23;;;1.00;;
73766;SDS011;62074;43.530;-5.646;2022-09-09T06:16:12;9.60;;;1.10;;
73766;SDS011;62074;43.530;-5.646;2022-09-09T06:18:42;5.78;;;0.93;;
73766;SDS011;62074;43.530;-5.646;2022-09-09T06:21:15;9.57;;;1.33;;
73766;SDS011;62074;43.530;-5.646;2022-09-09T06:23:42;8.40;;;1.05;;
73766;SDS011;62074;43.530;-5.646;2022-09-09T06:26:17;8.98;;;1.40;;
73766;SDS011;62074;43.530;-5.646;2022-09-09T06:28:47;7.43;;;0.90;;
73766;SDS011;62074;43.530;-5.646;2022-09-09T06:31:15;8.55;;;1.38;;
73766;SDS011;62074;43.530;-5.646;2022-09-09T06:33:42;8.32;;;1.20;;
73766;SDS011;62074;43.530;-5.646;2022-09-09T06:36:13;7.53;;;1.13;;
73766;SDS011;62074;43.530;-5.646;2022-09-09T06:38:41;9.10;;;1.40;;
73766;SDS011;62074;43.530;-5.646;2022-09-09T06:41:07;7.83;;;0.83;;
73766;SDS011;62074;43.530;-5.646;2022-09-09T06:43:34;7.82;;;1.25;;
73766;SDS011;62074;43.530;-5.646;2022-09-09T06:46:02;9.55;;;1.55;;
73766;SDS011;62074;43.530;-5.646;2022-09-09T06:48:30;11.37;;;1.40;;
73766;SDS011;62074;43.530;-5.646;2022-09-09T06:53:41;10.88;;;1.10;;
73766;SDS011;62074;43.530;-5.646;2022-09-09T06:58:34;10.93;;;1.08;;
73766;SDS011;62074;43.530;-5.646;2022-09-09T07:01:02;8.20;;;0.80;;
73766;SDS011;62074;43.530;-5.646;2022-09-09T07:03:31;6.13;;;0.90;;
73766;SDS011;62074;43.530;-5.646;2022-09-09T07:05:57;9.32;;;1.00;;
73766;SDS011;62074;43.530;-5.646;2022-09-09T07:08:24;7.13;;;0.75;;
73766;SDS011;62074;43.530;-5.646;2022-09-09T07:10:50;6.37;;;0.90;;
73766;SDS011;62074;43.530;-5.646;2022-09-09T07:13:19;5.23;;;0.73;;
73766;SDS011;62074;43.530;-5.646;2022-09-09T07:15:50;7.75;;;0.90;;
73766;SDS011;62074;43.530;-5.646;2022-09-09T07:18:16;6.90;;;1.00;;
73766;SDS011;62074;43.530;-5.646;2022-09-09T07:20:42;11.93;;;1.10;;
73766;SDS011;62074;43.530;-5.646;2022-09-09T07:23:07;6.20;;;0.80;;
73766;SDS011;62074;43.530;-5.646;2022-09-09T07:25:33;11.02;;;1.90;;
73766;SDS011;62074;43.530;-5.646;2022-09-09T07:27:59;5.73;;;0.80;;
73766;SDS011;62074;43.530;-5.646;2022-09-09T07:30:24;6.10;;;0.80;;
73766;SDS011;62074;43.530;-5.646;2022-09-09T07:32:53;7.88;;;1.10;;
73766;SDS011;62074;43.530;-5.646;2022-09-09T07:35:18;7.80;;;0.73;;
73766;SDS011;62074;43.530;-5.646;2022-09-09T07:37:45;9.40;;;0.80;;
73766;SDS011;62074;43.530;-5.646;2022-09-09T07:40:10;9.15;;;1.20;;
73766;SDS011;62074;43.530;-5.646;2022-09-09T07:42:36;9.13;;;1.50;;
73766;SDS011;62074;43.530;-5.646;2022-09-09T07:45:02;13.18;;;1.48;;
73766;SDS011;62074;43.530;-5.646;2022-09-09T07:47:29;10.32;;;1.05;;
73766;SDS011;62074;43.530;-5.646;2022-09-09T07:49:54;10.17;;;0.97;;
73766;SDS011;62074;43.530;-5.646;2022-09-09T07:52:20;12.73;;;1.25;;
73766;SDS011;62074;43.530;-5.646;2022-09-09T07:54:46;12.60;;;1.50;;
73766;SDS011;62074;43.530;-5.646;2022-09-09T07:57:11;8.77;;;1.27;;
73766;SDS011;62074;43.530;-5.646;2022-09-09T07:59:37;9.80;;;1.13;;
73766;SDS011;62074;43.530;-5.646;2022-09-09T08:02:03;8.93;;;1.20;;
73766;SDS011;62074;43.530;-5.646;2022-09-09T08:04:29;8.40;;;0.90;;
73766;SDS011;62074;43.530;-5.646;2022-09-09T08:06:58;8.53;;;0.97;;
73766;SDS011;62074;43.530;-5.646;2022-09-09T08:09:25;7.80;;;1.05;;
73766;SDS011;62074;43.530;-5.646;2022-09-09T08:11:55;10.75;;;1.33;;
73766;SDS011;62074;43.530;-5.646;2022-09-09T08:14:21;11.33;;;1.20;;
73766;SDS011;62074;43.530;-5.646;2022-09-09T08:16:48;10.65;;;1.60;;
73766;SDS011;62074;43.530;-5.646;2022-09-09T08:19:15;11.15;;;1.23;;
73766;SDS011;62074;43.530;-5.646;2022-09-09T08:21:41;11.82;;;2.30;;
73766;SDS011;62074;43.530;-5.646;2022-09-09T08:24:09;12.60;;;2.50;;
73766;SDS011;62074;43.530;-5.646;2022-09-09T08:26:40;15.67;;;2.77;;
73766;SDS011;62074;43.530;-5.646;2022-09-09T08:29:08;15.77;;;3.65;;
73766;SDS011;62074;43.530;-5.646;2022-09-09T08:31:48;17.13;;;3.72;;
73766;SDS011;62074;43.530;-5.646;2022-09-09T08:34:16;9.77;;;2.25;;
73766;SDS011;62074;43.530;-5.646;2022-09-09T08:36:45;10.18;;;2.85;;
73766;SDS011;62074;43.530;-5.646;2022-09-09T08:39:13;13.80;;;2.20;;
73766;SDS011;62074;43.530;-5.646;2022-09-09T08:47:32;20.25;;;3.42;;
73766;SDS011;62074;43.530;-5.646;2022-09-09T08:50:29;13.80;;;3.08;;
73766;SDS011;62074;43.530;-5.646;2022-09-09T09:09:02;14.13;;;1.80;;
73766;SDS011;62074;43.530;-5.646;2022-09-09T09:11:48;8.88;;;1.33;;
73766;SDS011;62074;43.530;-5.646;2022-09-09T09:19:21;6.30;;;1.57;;
73766;SDS011;62074;43.530;-5.646;2022-09-09T09:21:56;8.48;;;2.03;;
73766;SDS011;62074;43.530;-5.646;2022-09-09T09:30:12;8.48;;;2.35;;
73766;SDS011;62074;43.530;-5.646;2022-09-09T09:32:39;11.67;;;1.90;;
73766;SDS011;62074;43.530;-5.646;2022-09-09T09:35:12;11.52;;;2.33;;
73766;SDS011;62074;43.530;-5.646;2022-09-09T09:37:39;12.70;;;3.40;;
73766;SDS011;62074;43.530;-5.646;2022-09-09T09:42:37;14.18;;;3.08;;
73766;SDS011;62074;43.530;-5.646;2022-09-09T09:45:14;10.53;;;2.90;;
73766;SDS011;62074;43.530;-5.646;2022-09-09T09:47:46;12.20;;;4.18;;
73766;SDS011;62074;43.530;-5.646;2022-09-09T09:50:18;15.27;;;5.40;;
73766;SDS011;62074;43.530;-5.646;2022-09-09T09:52:53;11.63;;;5.10;;
73766;SDS011;62074;43.530;-5.646;2022-09-09T09:55:20;11.67;;;2.77;;
73766;SDS011;62074;43.530;-5.646;2022-09-09T09:57:47;11.13;;;2.42;;
73766;SDS011;62074;43.530;-5.646;2022-09-09T10:00:14;10.10;;;2.28;;
73766;SDS011;62074;43.530;-5.646;2022-09-09T10:02:48;10.32;;;2.90;;
73766;SDS011;62074;43.530;-5.646;2022-09-09T10:05:23;11.33;;;2.97;;
73766;SDS011;62074;43.530;-5.646;2022-09-09T10:19:30;8.83;;;3.70;;
73766;SDS011;62074;43.530;-5.646;2022-09-09T10:22:08;8.57;;;3.13;;
73766;SDS011;62074;43.530;-5.646;2022-09-09T10:30:19;12.10;;;3.40;;
73766;SDS011;62074;43.530;-5.646;2022-09-09T10:32:57;9.40;;;3.03;;
73766;SDS011;62074;43.530;-5.646;2022-09-09T10:44:14;7.38;;;2.42;;
73766;SDS011;62074;43.530;-5.646;2022-09-09T10:59:55;9.73;;;2.90;;
73766;SDS011;62074;43.530;-5.646;2022-09-09T11:02:27;7.25;;;3.20;;
73766;SDS011;62074;43.530;-5.646;2022-09-09T11:07:33;6.97;;;2.97;;
73766;SDS011;62074;43.530;-5.646;2022-09-09T11:10:07;6.65;;;2.70;;
73766;SDS011;62074;43.530;-5.646;2022-09-09T11:12:47;8.85;;;3.30;;
73766;SDS011;62074;43.530;-5.646;2022-09-09T11:15:19;6.57;;;2.50;;
73766;SDS011;62074;43.530;-5.646;2022-09-09T11:17:56;8.30;;;2.80;;
73766;SDS011;62074;43.530;-5.646;2022-09-09T11:20:25;8.48;;;3.03;;
73766;SDS011;62074;43.530;-5.646;2022-09-09T11:28:13;7.60;;;3.22;;
73766;SDS011;62074;43.530;-5.646;2022-09-09T11:34:04;6.72;;;2.80;;
73766;SDS011;62074;43.530;-5.646;2022-09-09T11:44:39;9.77;;;3.87;;
73766;SDS011;62074;43.530;-5.646;2022-09-09T11:50:08;8.45;;;3.10;;
73766;SDS011;62074;43.530;-5.646;2022-09-09T11:52:38;7.63;;;3.10;;
73766;SDS011;62074;43.530;-5.646;2022-09-09T12:03:02;7.18;;;2.90;;
73766;SDS011;62074;43.530;-5.646;2022-09-09T12:05:42;6.93;;;3.00;;
73766;SDS011;62074;43.530;-5.646;2022-09-09T12:08:11;7.60;;;3.17;;
73766;SDS011;62074;43.530;-5.646;2022-09-09T12:10:52;8.63;;;3.87;;
73766;SDS011;62074;43.530;-5.646;2022-09-09T12:13:20;6.63;;;3.28;;
73766;SDS011;62074;43.530;-5.646;2022-09-09T12:15:54;8.10;;;4.07;;
73766;SDS011;62074;43.530;-5.646;2022-09-09T12:18:25;7.32;;;3.78;;
73766;SDS011;62074;43.530;-5.646;2022-09-09T12:24:09;6.50;;;3.10;;
73766;SDS011;62074;43.530;-5.646;2022-09-09T12:37:40;6.00;;;3.20;;
73766;SDS011;62074;43.530;-5.646;2022-09-09T12:40:21;7.53;;;2.80;;
73766;SDS011;62074;43.530;-5.646;2022-09-09T12:42:48;6.57;;;3.30;;
73766;SDS011;62074;43.530;-5.646;2022-09-09T12:45:19;5.47;;;2.75;;
73766;SDS011;62074;43.530;-5.646;2022-09-09T12:48:29;6.55;;;3.20;;
73766;SDS011;62074;43.530;-5.646;2022-09-09T12:50:46;5.70;;;3.00;;
73766;SDS011;62074;43.530;-5.646;2022-09-09T12:53:28;8.27;;;3.17;;
73766;SDS011;62074;43.530;-5.646;2022-09-09T12:58:32;8.02;;;3.10;;
73766;SDS011;62074;43.530;-5.646;2022-09-09T13:00:58;9.67;;;2.77;;
73766;SDS011;62074;43.530;-5.646;2022-09-09T13:03:25;6.70;;;2.97;;
73766;SDS011;62074;43.530;-5.646;2022-09-09T13:05:51;5.88;;;2.40;;
73766;SDS011;62074;43.530;-5.646;2022-09-09T13:08:18;7.47;;;2.20;;
73766;SDS011;62074;43.530;-5.646;2022-09-09T13:13:21;7.23;;;2.20;;
73766;SDS011;62074;43.530;-5.646;2022-09-09T13:16:00;8.52;;;2.50;;
73766;SDS011;62074;43.530;-5.646;2022-09-09T13:18:30;8.57;;;2.58;;
73766;SDS011;62074;43.530;-5.646;2022-09-09T13:20:58;6.47;;;2.35;;
73766;SDS011;62074;43.530;-5.646;2022-09-09T13:23:29;7.53;;;2.28;;
73766;SDS011;62074;43.530;-5.646;2022-09-09T13:26:00;6.37;;;1.93;;
73766;SDS011;62074;43.530;-5.646;2022-09-09T13:28:29;6.78;;;2.20;;
73766;SDS011;62074;43.530;-5.646;2022-09-09T13:31:05;8.40;;;2.30;;
73766;SDS011;62074;43.530;-5.646;2022-09-09T13:33:46;8.05;;;2.53;;
73766;SDS011;62074;43.530;-5.646;2022-09-09T13:36:12;6.33;;;1.90;;
73766;SDS011;62074;43.530;-5.646;2022-09-09T13:41:20;7.47;;;1.90;;
73766;SDS011;62074;43.530;-5.646;2022-09-09T13:43:48;8.35;;;2.30;;
